Liscombe, United Kingdom
Current Conditions -  °F | °C
As of 11:50 AM on Friday 21 Nov 2014 (Local Time) from EGDX Reporting Station
Moderate Rain Moderate Rain  
Wind Chill: 40°   Ceiling: 500
Heat Index: 46°   Visibility: 2.1mi
Dew Point: 46°   Wind: 15mph
Humidity: 100%   Direction: 80°E
Pressure: 29.94"   Gusts: NA
Location:  51.08°N, 3.6°W
Report Text: EGDX 211150Z 08013KT 3500 RA OVC005 08/08 Q1014 YLO1
Loading
Personal Weather Stations






























Interactive Weather Map New forecast layout! Learn more

10-Day Weather Forecast

Advertisements
Track Severe Weather on mobile